METAR Data
IDs: Format: Raw Decoded Include TAF

Data at: 0113 UTC 06 Dec 2019

METAR for:KDAA (Fort Belvoir/Davison, VA, US)
Text:KDAA 060056Z AUTO 00000KT 10SM CLR 01/M06 A3013 RMK AO2 SLP206 T00091058 $
Temperature: 0.9°C ( 34°F)
Dewpoint: -5.8°C ( 22°F) [RH = 61%]
Pressure (altimeter):30.13 inches Hg (1020.4 mb) [Sea level pressure: 1020.6 mb]
Winds:calm
Visibility:10 or more sm (16+ km)
Ceiling:at least 12,000 feet AGL
Clouds:sky clear below 12,000 feet AGL
QC Flag:automated observation with no human augmentation; SOME DATA ABOVE MAY BE INACCURATE!!!"$" is an indication the sensor requires maintenance.